createdAt,value
2023-05-14T00:01:14.867Z,100.00
2023-05-14T00:03:41.495Z,100.00
2023-05-14T00:06:08.976Z,100.00
2023-05-14T00:08:35.740Z,100.00
2023-05-14T00:11:02.169Z,100.00
2023-05-14T00:13:28.994Z,100.00
2023-05-14T00:15:55.563Z,100.00
2023-05-14T00:18:21.957Z,100.00
2023-05-14T00:20:48.363Z,100.00
2023-05-14T00:23:14.694Z,100.00
2023-05-14T00:25:41.052Z,100.00
2023-05-14T00:28:07.430Z,100.00
2023-05-14T00:30:33.768Z,100.00
2023-05-14T00:33:00.235Z,100.00
2023-05-14T00:35:26.633Z,100.00
2023-05-14T00:37:53.721Z,100.00
2023-05-14T00:40:20.444Z,100.00
2023-05-14T00:42:46.744Z,100.00
2023-05-14T00:45:13.333Z,100.00
2023-05-14T00:47:40.148Z,100.00
2023-05-14T00:50:06.899Z,100.00
2023-05-14T00:52:33.218Z,100.00
2023-05-14T00:54:59.838Z,100.00
2023-05-14T00:57:26.301Z,100.00
2023-05-14T00:59:52.861Z,100.00
2023-05-14T01:02:19.218Z,100.00
2023-05-14T01:04:45.607Z,100.00
2023-05-14T01:07:23.959Z,100.00
2023-05-14T01:09:55.130Z,100.00
2023-05-14T01:12:27.349Z,100.00
2023-05-14T01:15:02.631Z,100.00
2023-05-14T01:17:31.845Z,100.00
2023-05-14T01:19:58.425Z,100.00
2023-05-14T01:22:24.788Z,100.00
2023-05-14T01:24:51.285Z,100.00
2023-05-14T01:27:26.541Z,100.00
2023-05-14T01:30:01.968Z,100.00
2023-05-14T01:32:30.291Z,100.00
2023-05-14T01:34:58.342Z,100.00
2023-05-14T01:37:25.483Z,100.00
2023-05-14T01:39:52.202Z,100.00
2023-05-14T01:42:18.588Z,100.00
2023-05-14T01:44:45.097Z,100.00
2023-05-14T01:47:11.419Z,100.00
2023-05-14T01:49:37.817Z,100.00
2023-05-14T01:52:04.277Z,100.00
2023-05-14T01:54:30.577Z,100.00
2023-05-14T01:56:56.876Z,100.00
2023-05-14T01:59:23.204Z,100.00
2023-05-14T02:01:49.654Z,100.00
2023-05-14T02:04:16.090Z,100.00
2023-05-14T02:06:42.476Z,100.00
2023-05-14T02:09:08.812Z,100.00
2023-05-14T02:11:35.117Z,100.00
2023-05-14T02:14:01.454Z,100.00
2023-05-14T02:16:27.871Z,100.00
2023-05-14T02:18:54.349Z,100.00
2023-05-14T02:21:20.695Z,100.00
2023-05-14T02:23:48.491Z,100.00
2023-05-14T02:26:14.814Z,100.00
2023-05-14T02:28:41.177Z,100.00
2023-05-14T02:31:07.576Z,100.00
2023-05-14T02:33:33.957Z,100.00
2023-05-14T02:36:00.346Z,100.00
2023-05-14T02:38:26.782Z,100.00
2023-05-14T02:40:53.249Z,100.00
2023-05-14T02:43:19.570Z,100.00
2023-05-14T02:45:45.904Z,100.00
2023-05-14T02:48:12.281Z,100.00
2023-05-14T02:50:38.744Z,100.00
2023-05-14T02:53:05.058Z,100.00
2023-05-14T02:55:31.498Z,100.00
2023-05-14T02:57:57.829Z,100.00
2023-05-14T03:00:24.415Z,100.00
2023-05-14T03:02:51.476Z,100.00
2023-05-14T03:05:18.426Z,100.00
2023-05-14T03:07:44.854Z,100.00
2023-05-14T03:10:11.161Z,100.00
2023-05-14T03:12:37.493Z,100.00
2023-05-14T03:15:04.051Z,100.00
2023-05-14T03:17:30.444Z,100.00
2023-05-14T03:19:56.885Z,100.00
2023-05-14T03:22:23.204Z,100.00
2023-05-14T03:24:49.524Z,100.00
2023-05-14T03:27:15.950Z,100.00
2023-05-14T03:29:42.283Z,100.00
2023-05-14T03:32:08.703Z,100.00
2023-05-14T03:34:35.061Z,100.00
2023-05-14T03:37:01.417Z,100.00
2023-05-14T03:39:27.740Z,100.00
2023-05-14T03:41:54.213Z,100.00
2023-05-14T03:44:20.514Z,100.00
2023-05-14T03:46:46.837Z,100.00
2023-05-14T03:49:13.122Z,100.00
2023-05-14T03:51:39.560Z,100.00
2023-05-14T03:54:06.667Z,100.00
2023-05-14T03:56:32.993Z,100.00
2023-05-14T03:58:59.288Z,100.00
2023-05-14T04:01:25.729Z,100.00
2023-05-14T04:03:52.272Z,100.00
2023-05-14T04:06:18.965Z,100.00
2023-05-14T04:08:45.419Z,100.00
2023-05-14T04:11:11.726Z,100.00
2023-05-14T04:13:38.085Z,100.00
2023-05-14T04:16:04.562Z,100.00
2023-05-14T04:18:34.936Z,100.00
2023-05-14T04:21:02.002Z,100.00
2023-05-14T04:23:29.504Z,100.00
2023-05-14T04:25:55.831Z,100.00
2023-05-14T04:28:22.201Z,100.00
2023-05-14T04:30:48.663Z,100.00
2023-05-14T04:33:14.987Z,100.00
2023-05-14T04:35:41.352Z,100.00
2023-05-14T04:38:10.040Z,100.00
2023-05-14T04:40:36.340Z,100.00
2023-05-14T04:43:02.952Z,100.00
2023-05-14T04:45:29.356Z,100.00
2023-05-14T04:47:55.891Z,100.00
2023-05-14T04:50:22.606Z,100.00
2023-05-14T04:52:49.065Z,100.00
2023-05-14T04:55:15.394Z,100.00
2023-05-14T04:57:41.689Z,100.00
2023-05-14T05:00:09.663Z,100.00
2023-05-14T05:02:36.159Z,100.00
2023-05-14T05:05:02.947Z,100.00
2023-05-14T05:07:29.274Z,100.00
2023-05-14T05:09:55.613Z,100.00
2023-05-14T05:12:21.918Z,100.00
2023-05-14T05:14:48.280Z,100.00
2023-05-14T05:17:14.662Z,100.00
2023-05-14T05:19:44.171Z,100.00
2023-05-14T05:22:11.176Z,100.00
2023-05-14T05:24:37.659Z,100.00
2023-05-14T05:27:05.365Z,100.00
2023-05-14T05:29:32.022Z,100.00
2023-05-14T05:31:58.545Z,100.00
2023-05-14T05:34:24.889Z,100.00
2023-05-14T05:36:51.706Z,100.00
2023-05-14T05:39:18.131Z,100.00
2023-05-14T05:41:44.485Z,100.00
2023-05-14T05:44:10.963Z,100.00
2023-05-14T05:46:37.645Z,100.00
2023-05-14T05:49:04.056Z,100.00
2023-05-14T05:51:30.389Z,100.00
2023-05-14T05:53:56.724Z,100.00
2023-05-14T05:56:23.086Z,100.00
2023-05-14T05:58:49.404Z,100.00
2023-05-14T06:01:15.796Z,100.00
2023-05-14T06:03:42.336Z,100.00
2023-05-14T06:06:08.766Z,100.00
2023-05-14T06:08:35.265Z,100.00
2023-05-14T06:11:01.580Z,100.00
2023-05-14T06:13:27.918Z,100.00
2023-05-14T06:15:54.258Z,100.00
2023-05-14T06:18:20.705Z,100.00
2023-05-14T06:20:47.188Z,100.00
2023-05-14T06:23:13.545Z,100.00
2023-05-14T06:25:39.900Z,100.00
2023-05-14T06:28:06.214Z,100.00
2023-05-14T06:30:32.698Z,100.00
2023-05-14T06:32:59.051Z,100.00
2023-05-14T06:35:25.560Z,100.00
2023-05-14T06:37:51.884Z,100.00
2023-05-14T06:40:18.498Z,100.00
2023-05-14T06:42:44.966Z,100.00
2023-05-14T06:45:11.400Z,100.00
2023-05-14T06:47:37.855Z,100.00
2023-05-14T06:50:04.326Z,100.00
2023-05-14T06:52:30.670Z,100.00
2023-05-14T06:54:57.124Z,100.00
2023-05-14T06:57:23.463Z,100.00
2023-05-14T06:59:49.820Z,100.00
2023-05-14T07:02:16.214Z,100.00
2023-05-14T07:04:42.626Z,100.00
2023-05-14T07:07:10.581Z,100.00
2023-05-14T07:09:36.915Z,100.00
2023-05-14T07:12:03.337Z,100.00
2023-05-14T07:14:29.654Z,100.00
2023-05-14T07:16:56.060Z,100.00
2023-05-14T07:19:22.377Z,100.00
2023-05-14T07:21:48.709Z,100.00
2023-05-14T07:24:15.027Z,100.00
2023-05-14T07:26:41.380Z,100.00
2023-05-14T07:29:08.056Z,100.00
2023-05-14T07:31:34.409Z,100.00
2023-05-14T07:34:00.807Z,100.00
2023-05-14T07:36:27.362Z,100.00
2023-05-14T07:38:54.055Z,100.00
2023-05-14T07:41:20.802Z,100.00
2023-05-14T07:43:47.150Z,100.00
2023-05-14T07:46:14.005Z,100.00
2023-05-14T07:48:40.598Z,100.00
2023-05-14T07:51:06.992Z,100.00
2023-05-14T07:53:33.326Z,100.00
2023-05-14T07:56:00.162Z,100.00
2023-05-14T07:58:27.983Z,100.00
2023-05-14T08:00:54.522Z,100.00
2023-05-14T08:03:20.893Z,100.00
2023-05-14T08:05:47.369Z,100.00
2023-05-14T08:08:13.757Z,100.00
2023-05-14T08:10:40.191Z,100.00
2023-05-14T08:13:06.666Z,100.00
2023-05-14T08:15:32.995Z,100.00
2023-05-14T08:18:03.436Z,100.00
2023-05-14T08:20:30.801Z,100.00
2023-05-14T08:22:58.057Z,100.00
2023-05-14T08:25:24.417Z,100.00
2023-05-14T08:27:50.902Z,100.00
2023-05-14T08:30:18.016Z,100.00
2023-05-14T08:32:44.509Z,100.00
2023-05-14T08:35:11.091Z,100.00
2023-05-14T08:37:37.488Z,100.00
2023-05-14T08:40:03.904Z,100.00
2023-05-14T08:42:31.322Z,100.00
2023-05-14T08:45:04.592Z,100.00
2023-05-14T08:47:31.414Z,100.00
2023-05-14T08:50:05.387Z,100.00
2023-05-14T08:52:32.271Z,100.00
2023-05-14T08:55:03.263Z,100.00
2023-05-14T08:57:31.132Z,100.00
2023-05-14T08:59:57.455Z,100.00
2023-05-14T09:02:25.603Z,100.00
2023-05-14T09:05:02.057Z,100.00
2023-05-14T09:07:28.574Z,100.00
2023-05-14T09:09:55.516Z,100.00
2023-05-14T09:12:22.271Z,100.00
2023-05-14T09:14:49.319Z,100.00
2023-05-14T09:17:16.646Z,100.00
2023-05-14T09:19:43.878Z,100.00
2023-05-14T09:22:11.947Z,100.00
2023-05-14T09:24:42.033Z,100.00
2023-05-14T09:27:09.596Z,100.00
2023-05-14T09:29:37.132Z,100.00
2023-05-14T09:32:05.436Z,100.00
2023-05-14T09:34:32.600Z,100.00
2023-05-14T09:37:00.541Z,100.00
2023-05-14T09:39:27.246Z,92.90
2023-05-14T09:41:54.235Z,83.89
2023-05-14T09:44:20.820Z,88.54
2023-05-14T09:46:47.836Z,82.45
2023-05-14T09:49:14.453Z,73.74
2023-05-14T09:51:40.996Z,68.65
2023-05-14T09:54:07.878Z,67.91
2023-05-14T09:56:34.659Z,69.22
2023-05-14T09:59:01.157Z,67.53
2023-05-14T10:01:28.737Z,76.50
2023-05-14T10:03:55.851Z,82.72
2023-05-14T10:06:24.197Z,73.98
2023-05-14T10:08:54.020Z,75.59
2023-05-14T10:11:22.345Z,73.52
2023-05-14T10:13:52.371Z,76.35
2023-05-14T10:16:24.244Z,71.54
2023-05-14T10:18:53.548Z,59.72
2023-05-14T10:21:22.124Z,56.77
2023-05-14T10:23:48.913Z,49.35
2023-05-14T10:26:15.694Z,48.36
2023-05-14T10:28:42.506Z,52.91
2023-05-14T10:31:09.620Z,58.32
2023-05-14T10:33:50.308Z,50.25
2023-05-14T10:36:20.296Z,49.17
2023-05-14T10:38:46.852Z,44.55
2023-05-14T10:41:15.624Z,54.22
2023-05-14T10:43:42.103Z,51.55
2023-05-14T10:46:09.742Z,42.22
2023-05-14T10:48:37.346Z,37.90
2023-05-14T10:51:03.851Z,37.40
2023-05-14T10:53:34.547Z,34.68
2023-05-14T10:56:04.668Z,37.11
2023-05-14T10:58:32.727Z,33.24
2023-05-14T11:00:59.837Z,31.96
2023-05-14T11:03:29.187Z,30.48
2023-05-14T11:05:55.514Z,30.60
2023-05-14T11:08:25.519Z,29.46
2023-05-14T11:10:54.468Z,28.57
2023-05-14T11:13:21.485Z,27.84
2023-05-14T11:15:48.746Z,26.72
2023-05-14T11:18:26.260Z,26.79
2023-05-14T11:20:52.650Z,28.17
2023-05-14T11:23:18.966Z,29.00
2023-05-14T11:25:45.422Z,29.84
2023-05-14T11:28:12.008Z,27.12
2023-05-14T11:30:38.396Z,26.71
2023-05-14T11:33:04.886Z,28.61
2023-05-14T11:35:32.344Z,28.96
2023-05-14T11:37:58.635Z,29.90
2023-05-14T11:40:25.046Z,31.38
2023-05-14T11:42:53.256Z,31.70
2023-05-14T11:45:26.567Z,32.31
2023-05-14T11:47:54.731Z,34.40
2023-05-14T11:50:22.119Z,35.01
2023-05-14T11:52:50.712Z,36.24
2023-05-14T11:55:17.418Z,34.91
2023-05-14T11:57:43.914Z,35.96
2023-05-14T12:00:13.458Z,34.73
2023-05-14T12:02:40.031Z,34.18
2023-05-14T12:05:11.612Z,32.80
2023-05-14T12:07:39.099Z,33.15
2023-05-14T12:10:05.997Z,29.55
2023-05-14T12:12:36.694Z,26.70
2023-05-14T12:15:10.209Z,31.43
2023-05-14T12:17:37.761Z,31.69
2023-05-14T12:20:04.353Z,32.28
2023-05-14T12:22:30.780Z,31.73
2023-05-14T12:24:58.536Z,33.61
2023-05-14T12:27:31.178Z,31.20
2023-05-14T12:30:19.222Z,29.63
2023-05-14T12:32:50.339Z,29.53
2023-05-14T12:35:16.689Z,31.47
2023-05-14T12:37:43.262Z,31.95
2023-05-14T12:40:10.156Z,32.81
2023-05-14T12:42:36.674Z,35.12
2023-05-14T12:45:05.593Z,35.74
2023-05-14T12:47:32.389Z,36.04
2023-05-14T12:49:58.780Z,38.10
2023-05-14T12:52:36.767Z,37.26
2023-05-14T12:55:04.811Z,36.15
2023-05-14T12:57:31.249Z,35.83
2023-05-14T12:59:57.711Z,38.30
2023-05-14T13:02:24.087Z,32.85
2023-05-14T13:04:50.550Z,30.43
2023-05-14T13:07:16.970Z,30.77
2023-05-14T13:09:43.292Z,32.64
2023-05-14T13:12:09.749Z,34.30
2023-05-14T13:14:36.433Z,35.23
2023-05-14T13:17:03.230Z,35.86
2023-05-14T13:19:29.590Z,38.66
2023-05-14T13:21:55.945Z,36.56
2023-05-14T13:24:22.426Z,34.75
2023-05-14T13:26:48.760Z,35.25
2023-05-14T13:29:15.064Z,37.89
2023-05-14T13:31:41.440Z,34.22
2023-05-14T13:34:08.790Z,34.45
2023-05-14T13:36:39.520Z,33.70
2023-05-14T13:39:06.485Z,33.67
2023-05-14T13:41:35.658Z,34.49
2023-05-14T13:44:02.013Z,37.20
2023-05-14T13:46:28.737Z,35.50
2023-05-14T13:48:55.555Z,34.40
2023-05-14T13:51:24.624Z,37.13
2023-05-14T13:53:51.061Z,37.30
2023-05-14T13:56:17.462Z,36.02
2023-05-14T13:58:47.590Z,36.58
2023-05-14T14:01:14.006Z,43.37
2023-05-14T14:03:40.353Z,43.52
2023-05-14T14:06:06.790Z,46.36
2023-05-14T14:08:33.115Z,49.92
2023-05-14T14:10:59.492Z,49.55
2023-05-14T14:13:26.031Z,57.72
2023-05-14T14:15:52.463Z,66.65
2023-05-14T14:18:18.868Z,61.21
2023-05-14T14:20:45.296Z,63.40
2023-05-14T14:23:12.016Z,65.03
2023-05-14T14:25:38.612Z,68.42
2023-05-14T14:28:05.145Z,78.33
2023-05-14T14:30:32.363Z,61.12
2023-05-14T14:33:01.266Z,57.11
2023-05-14T14:35:27.765Z,63.12
2023-05-14T14:37:55.621Z,49.48
2023-05-14T14:40:23.997Z,45.14
2023-05-14T14:42:50.635Z,42.41
2023-05-14T14:45:17.342Z,41.18
2023-05-14T14:47:46.750Z,35.33
2023-05-14T14:50:13.596Z,34.50
2023-05-14T14:52:40.316Z,33.49
2023-05-14T14:55:06.789Z,37.45
2023-05-14T14:57:33.095Z,37.92
2023-05-14T15:00:00.865Z,37.04
2023-05-14T15:02:29.055Z,42.35
2023-05-14T15:04:55.746Z,42.04
2023-05-14T15:07:22.634Z,41.78
2023-05-14T15:09:49.246Z,44.83
2023-05-14T15:12:17.012Z,38.59
2023-05-14T15:14:43.465Z,37.47
2023-05-14T15:17:10.419Z,35.40
2023-05-14T15:19:36.986Z,38.59
2023-05-14T15:22:03.685Z,38.15
2023-05-14T15:24:29.982Z,38.37
2023-05-14T15:26:56.287Z,40.31
2023-05-14T15:29:22.625Z,40.30
2023-05-14T15:31:49.027Z,45.61
2023-05-14T15:34:15.448Z,49.34
2023-05-14T15:36:42.025Z,41.29
2023-05-14T15:39:10.252Z,43.22
2023-05-14T15:41:36.935Z,43.05
2023-05-14T15:44:03.344Z,45.46
2023-05-14T15:46:30.294Z,47.97
2023-05-14T15:48:57.597Z,46.92
2023-05-14T15:51:23.932Z,50.90
2023-05-14T15:53:50.273Z,52.83
2023-05-14T15:56:16.796Z,58.14
2023-05-14T15:58:43.294Z,63.98
2023-05-14T16:01:09.593Z,65.46
2023-05-14T16:03:36.046Z,66.29
2023-05-14T16:06:02.679Z,75.83
2023-05-14T16:08:29.317Z,67.37
2023-05-14T16:10:55.656Z,65.00
2023-05-14T16:13:21.984Z,61.83
2023-05-14T16:15:48.324Z,64.00
2023-05-14T16:18:14.691Z,56.81
2023-05-14T16:20:41.425Z,51.97
2023-05-14T16:23:07.783Z,55.08
2023-05-14T16:25:34.183Z,51.92
2023-05-14T16:28:00.601Z,53.90
2023-05-14T16:30:27.048Z,59.95
2023-05-14T16:32:53.634Z,53.86
2023-05-14T16:35:19.979Z,59.30
2023-05-14T16:37:46.396Z,62.93
2023-05-14T16:40:12.998Z,60.37
2023-05-14T16:42:39.327Z,70.40
2023-05-14T16:45:06.284Z,71.79
2023-05-14T16:47:32.705Z,74.23
2023-05-14T16:49:59.070Z,79.74
2023-05-14T16:52:25.487Z,83.56
2023-05-14T16:54:51.936Z,86.68
2023-05-14T16:57:18.270Z,98.40
2023-05-14T16:59:44.790Z,99.04
2023-05-14T17:02:11.121Z,96.79
2023-05-14T17:04:40.994Z,90.06
2023-05-14T17:07:07.528Z,90.28
2023-05-14T17:09:34.105Z,91.56
2023-05-14T17:12:00.614Z,89.15
2023-05-14T17:14:26.964Z,91.54
2023-05-14T17:16:53.667Z,93.91
2023-05-14T17:19:20.602Z,100.00
2023-05-14T17:21:46.944Z,98.84
2023-05-14T17:24:13.258Z,100.00
2023-05-14T17:26:39.776Z,100.00
2023-05-14T17:29:06.146Z,100.00
2023-05-14T17:31:32.561Z,100.00
2023-05-14T17:33:59.046Z,100.00
2023-05-14T17:36:25.832Z,100.00
2023-05-14T17:38:52.503Z,100.00
2023-05-14T17:41:18.851Z,100.00
2023-05-14T17:43:45.305Z,100.00
2023-05-14T17:46:11.700Z,100.00
2023-05-14T17:48:38.098Z,100.00
2023-05-14T17:51:04.492Z,100.00
2023-05-14T17:53:31.153Z,100.00
2023-05-14T17:55:57.607Z,100.00
2023-05-14T17:58:24.364Z,100.00
2023-05-14T18:00:50.831Z,100.00
2023-05-14T18:03:17.509Z,100.00
2023-05-14T18:05:43.920Z,100.00
2023-05-14T18:08:10.335Z,100.00
2023-05-14T18:10:36.794Z,100.00
2023-05-14T18:13:03.340Z,100.00
2023-05-14T18:15:31.555Z,100.00
2023-05-14T18:17:58.015Z,100.00
2023-05-14T18:20:24.409Z,100.00
2023-05-14T18:22:51.395Z,100.00
2023-05-14T18:25:17.905Z,100.00
2023-05-14T18:27:45.308Z,100.00
2023-05-14T18:30:12.995Z,100.00
2023-05-14T18:32:40.166Z,100.00
2023-05-14T18:35:08.157Z,100.00
2023-05-14T18:40:02.418Z,100.00
2023-05-14T18:42:28.798Z,100.00
2023-05-14T18:44:55.156Z,100.00
2023-05-14T18:47:21.514Z,100.00
2023-05-14T18:49:47.944Z,100.00
2023-05-14T18:52:14.245Z,100.00
2023-05-14T18:54:40.655Z,100.00
2023-05-14T18:57:07.082Z,100.00
2023-05-14T18:59:33.420Z,100.00
2023-05-14T19:01:59.848Z,100.00
2023-05-14T19:04:26.714Z,100.00
2023-05-14T19:06:53.041Z,100.00
2023-05-14T19:09:21.216Z,100.00
2023-05-14T19:11:47.755Z,100.00
2023-05-14T19:14:14.139Z,100.00
2023-05-14T19:16:40.763Z,100.00
2023-05-14T19:19:07.644Z,100.00
2023-05-14T19:21:34.125Z,100.00
2023-05-14T19:24:00.573Z,100.00
2023-05-14T19:26:27.047Z,100.00
2023-05-14T19:28:58.325Z,100.00
2023-05-14T19:31:27.955Z,100.00
2023-05-14T19:33:54.614Z,100.00
2023-05-14T19:36:21.047Z,100.00
2023-05-14T19:38:48.108Z,100.00
2023-05-14T19:41:14.840Z,100.00
2023-05-14T19:43:41.390Z,100.00
2023-05-14T19:46:07.808Z,100.00
2023-05-14T19:48:34.354Z,100.00
2023-05-14T19:51:00.706Z,100.00
2023-05-14T19:53:29.920Z,100.00
2023-05-14T19:55:57.151Z,100.00
2023-05-14T19:58:23.840Z,100.00
2023-05-14T20:00:54.461Z,100.00
2023-05-14T20:03:23.677Z,100.00
2023-05-14T20:05:50.076Z,100.00
2023-05-14T20:08:16.694Z,100.00
2023-05-14T20:10:44.702Z,100.00
2023-05-14T20:13:11.040Z,100.00
2023-05-14T20:15:37.514Z,100.00
2023-05-14T20:18:03.966Z,100.00
2023-05-14T20:20:33.240Z,100.00
2023-05-14T20:23:00.217Z,100.00
2023-05-14T20:25:28.331Z,100.00
2023-05-14T20:27:55.251Z,100.00
2023-05-14T20:30:21.611Z,100.00
2023-05-14T20:32:48.070Z,100.00
2023-05-14T20:35:14.494Z,100.00
2023-05-14T20:37:41.343Z,100.00
2023-05-14T20:40:10.358Z,100.00
2023-05-14T20:42:36.995Z,100.00
2023-05-14T20:45:03.834Z,100.00
2023-05-14T20:47:31.953Z,100.00
2023-05-14T20:49:58.420Z,100.00
2023-05-14T20:52:24.794Z,100.00
2023-05-14T20:54:51.366Z,100.00
2023-05-14T20:57:18.387Z,100.00
2023-05-14T20:59:48.903Z,100.00
2023-05-14T21:02:15.743Z,100.00
2023-05-14T21:04:42.547Z,100.00
2023-05-14T21:07:09.223Z,100.00
2023-05-14T21:09:35.681Z,100.00
2023-05-14T21:12:02.029Z,100.00
2023-05-14T21:14:28.393Z,100.00
2023-05-14T21:16:54.724Z,100.00
2023-05-14T21:19:22.460Z,100.00
2023-05-14T21:21:48.885Z,100.00
2023-05-14T21:24:16.768Z,100.00
2023-05-14T21:26:43.124Z,100.00
2023-05-14T21:29:09.443Z,100.00
2023-05-14T21:31:35.781Z,100.00
2023-05-14T21:34:02.157Z,100.00
2023-05-14T21:36:28.594Z,100.00
2023-05-14T21:38:54.913Z,100.00
2023-05-14T21:41:21.684Z,100.00
2023-05-14T21:43:48.010Z,100.00
2023-05-14T21:46:14.408Z,100.00
2023-05-14T21:48:40.856Z,100.00
2023-05-14T21:51:07.438Z,100.00
2023-05-14T21:53:34.664Z,100.00
2023-05-14T21:56:01.000Z,100.00
2023-05-14T21:58:27.491Z,100.00
2023-05-14T22:00:53.861Z,100.00
2023-05-14T22:03:20.354Z,100.00
2023-05-14T22:05:46.717Z,100.00
2023-05-14T22:08:13.065Z,100.00
2023-05-14T22:10:39.394Z,100.00
2023-05-14T22:13:05.718Z,100.00
2023-05-14T22:15:32.029Z,100.00
2023-05-14T22:17:58.413Z,100.00
2023-05-14T22:20:24.816Z,100.00
2023-05-14T22:22:51.547Z,100.00
2023-05-14T22:25:17.859Z,100.00
2023-05-14T22:27:44.199Z,100.00
2023-05-14T22:30:10.845Z,100.00
2023-05-14T22:32:37.188Z,100.00
2023-05-14T22:35:03.670Z,100.00
2023-05-14T22:37:30.008Z,100.00
2023-05-14T22:39:56.393Z,100.00
2023-05-14T22:42:22.709Z,100.00
2023-05-14T22:44:49.055Z,100.00
2023-05-14T22:47:15.728Z,100.00
2023-05-14T22:49:43.006Z,100.00
2023-05-14T22:52:09.343Z,100.00
2023-05-14T22:54:36.346Z,100.00
2023-05-14T22:57:03.337Z,100.00
2023-05-14T22:59:29.709Z,100.00
2023-05-14T23:01:56.094Z,100.00
2023-05-14T23:04:22.563Z,100.00
2023-05-14T23:06:48.914Z,100.00
2023-05-14T23:09:15.269Z,100.00
2023-05-14T23:11:41.713Z,100.00
2023-05-14T23:14:08.474Z,100.00
2023-05-14T23:16:35.072Z,100.00
2023-05-14T23:19:01.596Z,100.00
2023-05-14T23:21:28.108Z,100.00
2023-05-14T23:23:54.445Z,100.00
2023-05-14T23:26:21.646Z,100.00
2023-05-14T23:28:48.037Z,100.00
2023-05-14T23:31:14.404Z,100.00
2023-05-14T23:33:41.078Z,100.00
2023-05-14T23:36:07.727Z,100.00
2023-05-14T23:38:34.245Z,100.00
2023-05-14T23:41:00.595Z,100.00
2023-05-14T23:43:27.041Z,100.00
2023-05-14T23:45:53.443Z,100.00
2023-05-14T23:48:19.865Z,100.00
2023-05-14T23:50:46.365Z,100.00
2023-05-14T23:53:12.716Z,100.00
2023-05-14T23:55:39.275Z,100.00
2023-05-14T23:58:06.226Z,100.00
